Emerald Coast — WDC9127 — position and weather

sailwx.info

Track history (hours):
 
Tides and Currents Weather Stations Pressure Air Temp Water Temp Dewpoint Dewpoint Depression Visibility Wind Speed Wind Dir Waves Ship Positions

Emerald Coast

Owner: Dann Marine Towing, LC, Chesapeake City, MD. More information available from US FCC via Universal Licensing System and Coast Guard Vessel Documentation Center.

Last reported at 2017-Nov-18 13:23 UTC. Time now 2017-Nov-19 10:12 UTC.
Position N 40°58' W 073°54'.

Length 24 m; draft 3 m.

Type: Tug. MMSI: 367097920.

Date/timePositionNaut miles runAvg speedWind from/ knotsBaromVisibWave heightAir tempDewpointWater temp
2017-Nov-18 13:23N 40°58' W 073°54'3 7.9
2017-Nov-18 13:00N 40°55' W 073°55'4 8.1
2017-Nov-18 12:30N 40°52' W 073°57'4 7.6
2017-Nov-18 12:00N 40°48' W 073°59'4 7.3
2017-Nov-18 11:30N 40°45' W 074°01'3 6.7
2017-Nov-18 11:00N 40°42' W 074°02'3 6.2
2017-Nov-18 10:30N 40°39' W 074°04'2 4.7
2017-Nov-18 10:00N 40°39' W 074°07'2 4.7
2017-Nov-18 09:29N 40°39' W 074°10'3 5.2
2017-Nov-18 09:00N 40°37' W 074°12'2 3.2
2017-Nov-18 08:30N 40°35' W 074°13'0 0.0
2017-Nov-18 04:13N 40°35' W 074°12'2 7.4
2017-Nov-18 03:58N 40°33' W 074°13'2 1.9
2017-Nov-18 03:07N 40°33' W 074°15'1 4.2
2017-Nov-18 02:59N 40°33' W 074°15'3 5.3
2017-Nov-18 02:30N 40°35' W 074°12'2 4.0
2017-Nov-18 02:00N 40°37' W 074°12'3 6.2
2017-Nov-18 01:30N 40°39' W 074°09'2 4.1
2017-Nov-18 00:58N 40°39' W 074°06'0 0.1
2017-Nov-18 00:29N 40°39' W 074°06'1 1.7
2017-Nov-18 00:00N 40°39' W 074°07'0 0.7
2017-Nov-17 23:30N 40°38' W 074°07'0 0.0
2017-Nov-17 23:00N 40°38' W 074°07'0 0.0
2017-Nov-17 22:24N 40°38' W 074°07'0 0.0
2017-Nov-17 22:00N 40°38' W 074°07'0 0.0
2017-Nov-17 21:21N 40°38' W 074°07'0 0.0
2017-Nov-17 21:00N 40°38' W 074°07'0 0.0
2017-Nov-17 20:24N 40°38' W 074°07'0 0.0
2017-Nov-17 19:54N 40°38' W 074°07'0 0.0
2017-Nov-17 19:30N 40°38' W 074°07'0 0.0
2017-Nov-17 19:00N 40°38' W 074°07'0 0.0
2017-Nov-17 18:30N 40°38' W 074°07'0 0.0
2017-Nov-17 18:00N 40°38' W 074°07'0 0.0
2017-Nov-17 17:30N 40°38' W 074°07'0 0.0
2017-Nov-17 17:00N 40°38' W 074°07'0 0.0
2017-Nov-17 16:30N 40°38' W 074°07'0 0.0
2017-Nov-17 16:00N 40°38' W 074°07'0 0.0
2017-Nov-17 15:27N 40°38' W 074°07'0 0.0
2017-Nov-17 15:00N 40°38' W 074°07'0 0.0
2017-Nov-17 14:27N 40°38' W 074°07'0 0.0
2017-Nov-17 13:57N 40°38' W 074°07'0 1.1
2017-Nov-17 13:30N 40°39' W 074°07'1 1.3
2017-Nov-17 12:59N 40°39' W 074°06'0 0.6
2017-Nov-17 12:30N 40°39' W 074°05'3 5.2
2017-Nov-17 12:00N 40°40' W 074°09'0 0.4
2017-Nov-17 11:30N 40°40' W 074°09'0 0.7
2017-Nov-17 11:00N 40°39' W 074°09'2 3.2
2017-Nov-17 10:30N 40°39' W 074°07'0 0.6
2017-Nov-17 09:50N 40°39' W 074°07'0 0.0
2017-Nov-17 09:26N 40°39' W 074°07'0 0.0
2017-Nov-17 08:50N 40°39' W 074°07'0 0.0
2017-Nov-17 08:29N 40°39' W 074°07'0 0.0
2017-Nov-17 07:59N 40°39' W 074°07'0 0.0
2017-Nov-17 07:29N 40°39' W 074°07'0 0.1
2017-Nov-17 06:59N 40°39' W 074°07'0 0.0
2017-Nov-17 06:23N 40°39' W 074°07'0 0.0
2017-Nov-17 05:59N 40°39' W 074°07'0 0.0
2017-Nov-17 05:26N 40°39' W 074°07'0 0.0
2017-Nov-17 04:56N 40°39' W 074°07'0 0.0
2017-Nov-17 04:26N 40°39' W 074°07'0 0.0
2017-Nov-17 03:59N 40°39' W 074°07'0 0.0
2017-Nov-17 03:29N 40°39' W 074°07'0 0.1
2017-Nov-17 02:59N 40°39' W 074°07'0 0.0
2017-Nov-17 02:20N 40°39' W 074°07'0 0.0
2017-Nov-17 01:44N 40°39' W 074°07'0 0.0
2017-Nov-17 01:26N 40°39' W 074°07'0 0.0
2017-Nov-17 00:47N 40°39' W 074°07'0 0.0
2017-Nov-17 00:26N 40°39' W 074°07'0 0.0
2017-Nov-16 22:53N 40°39' W 074°07'0 0.1
2017-Nov-16 22:29N 40°39' W 074°07'0 0.4
2017-Nov-16 22:00N 40°39' W 074°07'0 0.0
2017-Nov-16 21:30N 40°39' W 074°07'0 0.0
2017-Nov-16 21:00N 40°39' W 074°07'0 0.0
2017-Nov-16 20:30N 40°39' W 074°07'0 0.0
2017-Nov-16 19:54N 40°39' W 074°07'0 0.3
2017-Nov-16 19:29N 40°39' W 074°07'2 5.0
2017-Nov-16 19:00N 40°41' W 074°09'0 0.7
2017-Nov-16 18:30N 40°41' W 074°08'2 4.0
2017-Nov-16 18:01N 40°39' W 074°09'1 2.2
2017-Nov-16 17:28N 40°39' W 074°07'0 0.7
2017-Nov-16 16:57N 40°39' W 074°07'0 0.0
2017-Nov-16 16:27N 40°39' W 074°07'0 0.0
2017-Nov-16 15:57N 40°38' W 074°07'2 4.1
2017-Nov-16 15:30N 40°39' W 074°10'2 3.4
2017-Nov-16 14:49N 40°38' W 074°12'0 1.2
2017-Nov-16 14:30N 40°38' W 074°12'0 0.0
2017-Nov-16 13:35N 40°38' W 074°12'1 6.2
2017-Nov-16 13:30N 40°38' W 074°12'0 0.9
2017-Nov-16 12:59N 40°39' W 074°11'2 3.7
2017-Nov-16 12:30N 40°39' W 074°09'2 1.9
2017-Nov-16 11:22N 40°39' W 074°06'1 2.2
2017-Nov-16 10:58N 40°39' W 074°05'2 2.7
2017-Nov-16 10:24N 40°39' W 074°07'0 0.0
2017-Nov-16 10:00N 40°39' W 074°07'0 0.0
2017-Nov-16 09:30N 40°39' W 074°07'0 0.0
2017-Nov-16 08:57N 40°39' W 074°07'0 0.0
2017-Nov-16 08:21N 40°39' W 074°07'0 0.0
2017-Nov-16 08:00N 40°39' W 074°07'0 0.0
2017-Nov-16 07:30N 40°39' W 074°07'0 0.0
2017-Nov-16 07:00N 40°39' W 074°07'0 0.0
2017-Nov-16 06:30N 40°39' W 074°07'0 0.0
2017-Nov-16 06:00N 40°39' W 074°07'0 0.3
2017-Nov-16 05:31N 40°39' W 074°07'3 5.8
2017-Nov-16 05:00N 40°41' W 074°04'1 2.3
2017-Nov-16 04:30N 40°41' W 074°03'4 7.2
2017-Nov-16 04:00N 40°44' W 074°01'4 7.1
2017-Nov-16 03:30N 40°47' W 073°59'3 6.5
2017-Nov-16 03:00N 40°50' W 073°57'3 5.6
2017-Nov-16 02:29N 40°53' W 073°56'3 5.0
2017-Nov-16 01:59N 40°55' W 073°55'2 0.8
2017-Nov-15 22:59N 40°58' W 073°54'3 6.6
2017-Nov-15 22:30N 40°55' W 073°55'3 6.4
2017-Nov-15 22:00N 40°52' W 073°57'3 6.3
2017-Nov-15 21:29N 40°49' W 073°58'3 5.9
2017-Nov-15 21:01N 40°46' W 074°00'3 5.3
2017-Nov-15 20:30N 40°44' W 074°01'2 4.9
2017-Nov-15 20:01N 40°41' W 074°02'2 4.8
2017-Nov-15 19:31N 40°39' W 074°04'2 4.5
2017-Nov-15 19:00N 40°39' W 074°07'2 4.5
2017-Nov-15 18:30N 40°39' W 074°10'2 4.6
2017-Nov-15 18:00N 40°38' W 074°12'2 4.9
2017-Nov-15 17:30N 40°35' W 074°12'2 4.2
2017-Nov-15 17:00N 40°33' W 074°14'0 0.1
2017-Nov-15 13:27N 40°33' W 074°15'4 7.6
2017-Nov-15 12:59N 40°36' W 074°12'3 6.3
2017-Nov-15 12:30N 40°39' W 074°10'4 7.5
2017-Nov-15 12:00N 40°39' W 074°05'2 3.4
2017-Nov-15 11:30N 40°39' W 074°03'2 4.6
2017-Nov-15 11:00N 40°41' W 074°01'0 0.8
2017-Nov-15 10:30N 40°41' W 074°01'0 0.0
2017-Nov-15 10:00N 40°41' W 074°01'0 0.0
2017-Nov-15 09:30N 40°41' W 074°01'1 2.1
2017-Nov-15 09:00N 40°41' W 074°02'4 8.1
2017-Nov-15 08:30N 40°39' W 074°07'4 7.6
2017-Nov-15 08:00N 40°38' W 074°12'1 1.1
2017-Nov-15 07:28N 40°38' W 074°12'0 0.2
2017-Nov-15 06:59N 40°38' W 074°12'0 0.1
2017-Nov-15 06:28N 40°38' W 074°12'0 0.3
2017-Nov-15 05:58N 40°38' W 074°12'0 0.6
2017-Nov-15 05:30N 40°38' W 074°12'4 8.5
2017-Nov-15 05:00N 40°39' W 074°07'5 9.2
2017-Nov-15 04:30N 40°41' W 074°01'0 0.4
2017-Nov-15 04:00N 40°41' W 074°01'2 4.6
2017-Nov-15 03:30N 40°40' W 074°04'2 4.5
2017-Nov-15 02:59N 40°39' W 074°07'0 0.0
2017-Nov-15 02:30N 40°39' W 074°07'1 1.2
2017-Nov-15 01:56N 40°38' W 074°07'0 0.0
2017-Nov-15 01:26N 40°38' W 074°07'0 0.0
2017-Nov-15 00:59N 40°38' W 074°07'0 0.0
2017-Nov-15 00:26N 40°38' W 074°07'0 0.0
2017-Nov-14 23:59N 40°38' W 074°07'0 0.0
2017-Nov-14 23:11N 40°38' W 074°07'0 0.0
2017-Nov-14 22:59N 40°38' W 074°07'0 0.0
2017-Nov-14 22:23N 40°38' W 074°07'0 0.0
2017-Nov-14 21:59N 40°38' W 074°07'0 0.0
2017-Nov-14 21:29N 40°38' W 074°07'0 0.0
2017-Nov-14 20:56N 40°38' W 074°07'0 0.0
2017-Nov-14 20:26N 40°38' W 074°07'0 0.0
2017-Nov-14 19:56N 40°38' W 074°07'0 0.0
2017-Nov-14 19:23N 40°38' W 074°07'1 1.8
2017-Nov-14 19:00N 40°39' W 074°08'1 2.8
2017-Nov-14 18:29N 40°39' W 074°10'2 3.4
2017-Nov-14 18:00N 40°40' W 074°08'0 0.3
2017-Nov-14 17:30N 40°40' W 074°08'0 0.5
2017-Nov-14 17:00N 40°40' W 074°09'0 0.0
2017-Nov-14 16:30N 40°40' W 074°09'0 0.0
2017-Nov-14 16:00N 40°40' W 074°09'0 0.0
2017-Nov-14 15:27N 40°40' W 074°09'0 0.0
2017-Nov-14 15:00N 40°40' W 074°09'0 0.0
2017-Nov-14 14:30N 40°40' W 074°09'0 0.0
2017-Nov-14 14:00N 40°40' W 074°09'0 0.7
2017-Nov-14 13:30N 40°40' W 074°09'0 0.2
2017-Nov-14 13:00N 40°39' W 074°09'0 0.5
2017-Nov-14 12:30N 40°39' W 074°09'2 3.1
2017-Nov-14 12:00N 40°39' W 074°07'1 1.2
2017-Nov-14 11:29N 40°39' W 074°06'3 6.4
2017-Nov-14 11:00N 40°39' W 074°02'1 2.6
2017-Nov-14 10:30N 40°40' W 074°01'3 5.3
2017-Nov-14 10:00N 40°39' W 074°04'2 3.9
2017-Nov-14 09:25N 40°39' W 074°07'0 0.9
2017-Nov-14 08:54N 40°38' W 074°07'0 0.0
2017-Nov-14 08:27N 40°38' W 074°07'0 0.0
2017-Nov-14 08:00N 40°38' W 074°07'0 0.0
2017-Nov-14 07:27N 40°38' W 074°07'0 0.0
2017-Nov-14 07:00N 40°38' W 074°07'0 0.0
2017-Nov-14 06:30N 40°38' W 074°07'0 0.0
2017-Nov-14 06:00N 40°38' W 074°07'0 0.0
2017-Nov-14 05:30N 40°38' W 074°07'1 1.3
2017-Nov-14 04:58N 40°39' W 074°06'2 4.6
2017-Nov-14 04:30N 40°40' W 074°04'1 1.2
2017-Nov-14 04:00N 40°40' W 074°05'0 0.0
2017-Nov-14 03:30N 40°40' W 074°05'0 0.6
2017-Nov-14 02:59N 40°40' W 074°05'0 0.0
2017-Nov-14 02:29N 40°40' W 074°05'0 0.0
2017-Nov-14 01:59N 40°40' W 074°05'0 0.0
2017-Nov-14 01:29N 40°40' W 074°05'0 0.0
2017-Nov-14 01:00N 40°40' W 074°05'3 5.9
2017-Nov-14 00:30N 40°40' W 074°01'1 1.6
2017-Nov-13 23:59N 40°40' W 074°00'0 0.0
2017-Nov-13 23:29N 40°40' W 074°00'0 0.0
2017-Nov-13 22:59N 40°40' W 074°00'0 0.2
2017-Nov-13 22:30N 40°40' W 074°00'0 0.0
2017-Nov-13 22:00N 40°40' W 074°00'6 0.3
2017-Nov-13 01:59N 40°39' W 074°07'0 0.0
2017-Nov-13 01:29N 40°39' W 074°07'0 0.0
2017-Nov-13 00:50N 40°39' W 074°07'0 0.0
2017-Nov-13 00:26N 40°39' W 074°07'0 0.0
2017-Nov-12 23:59N 40°39' W 074°07'0 0.0
2017-Nov-12 23:29N 40°39' W 074°07'0 0.0
2017-Nov-12 22:59N 40°39' W 074°07'0 0.0
2017-Nov-12 22:29N 40°39' W 074°07'0 0.0
2017-Nov-12 21:59N 40°39' W 074°07'0 0.0
2017-Nov-12 21:23N 40°39' W 074°07'0 0.0
2017-Nov-12 20:56N 40°39' W 074°07'0 0.0
2017-Nov-12 20:29N 40°39' W 074°07'0 0.1
2017-Nov-12 20:00N 40°39' W 074°07'0 0.7
2017-Nov-12 19:30N 40°39' W 074°07'2 3.2
2017-Nov-12 19:00N 40°38' W 074°09'0 0.0
2017-Nov-12 18:30N 40°38' W 074°09'2 2.7
2017-Nov-12 17:52N 40°38' W 074°07'0 0.0
2017-Nov-12 17:10N 40°38' W 074°07'0 0.0
2017-Nov-12 16:58N 40°38' W 074°07'0 0.0
2017-Nov-12 16:22N 40°38' W 074°07'2 6.4
2017-Nov-12 16:00N 40°39' W 074°04'4 7.2
2017-Nov-12 15:28N 40°41' W 074°00'0 0.2
2017-Nov-12 14:58N 40°41' W 074°00'0 0.4
2017-Nov-12 14:30N 40°41' W 074°01'2 4.0
2017-Nov-12 14:01N 40°43' W 074°01'4 7.0
2017-Nov-12 13:30N 40°47' W 074°00'4 7.1
2017-Nov-12 13:01N 40°50' W 073°58'3 6.7
2017-Nov-12 12:30N 40°53' W 073°56'3 6.4
2017-Nov-12 12:00N 40°56' W 073°55'2 0.1
2017-Nov-11 07:48N 40°58' W 073°54'2 7.7
2017-Nov-11 07:30N 40°55' W 073°55'4 8.0
2017-Nov-11 07:00N 40°52' W 073°57'4 7.5
2017-Nov-11 06:30N 40°48' W 073°59'4 7.0
2017-Nov-11 06:00N 40°45' W 074°01'3 6.1
2017-Nov-11 05:30N 40°42' W 074°02'3 5.8
2017-Nov-11 05:00N 40°39' W 074°03'2 4.8
2017-Nov-11 04:30N 40°39' W 074°06'2 4.4
2017-Nov-11 04:00N 40°39' W 074°09'2 4.9
2017-Nov-11 03:30N 40°38' W 074°12'0 0.1
2017-Nov-11 02:56N 40°38' W 074°12'2 5.3
2017-Nov-11 02:30N 40°39' W 074°10'3 5.5
2017-Nov-11 01:56N 40°39' W 074°05'0 0.0
2017-Nov-11 01:26N 40°39' W 074°05'0 0.0
2017-Nov-11 00:59N 40°39' W 074°05'2 4.3
2017-Nov-11 00:30N 40°39' W 074°03'2 4.9
2017-Nov-11 00:00N 40°40' W 074°00'0 0.0
2017-Nov-10 23:30N 40°40' W 074°00'0 0.0
2017-Nov-10 23:00N 40°40' W 074°00'0 0.0
2017-Nov-10 22:30N 40°40' W 074°00'0 0.0
2017-Nov-10 22:00N 40°40' W 073°60'3 6.5
2017-Nov-10 21:30N 40°39' W 074°04'3 6.8
2017-Nov-10 21:00N 40°40' W 074°09'0 0.4
2017-Nov-10 20:30N 40°40' W 074°08'2 3.0
2017-Nov-10 20:01N 40°39' W 074°08'2 4.5
2017-Nov-10 19:31N 40°39' W 074°05'0 0.5
2017-Nov-10 18:59N 40°39' W 074°05'0 0.1
2017-Nov-10 18:29N 40°39' W 074°05'1 1.2
2017-Nov-10 18:00N 40°39' W 074°06'4 8.6
2017-Nov-10 17:30N 40°39' W 074°11'4 8.4
2017-Nov-10 17:00N 40°34' W 074°13'2 0.8
2017-Nov-10 15:01N 40°33' W 074°14'0 4.6
2017-Nov-10 15:00N 40°33' W 074°14'3 6.2
2017-Nov-10 14:28N 40°36' W 074°12'3 6.7
2017-Nov-10 13:59N 40°39' W 074°09'2 2.4
2017-Nov-10 13:18N 40°38' W 074°07'0 0.0
2017-Nov-10 13:00N 40°38' W 074°07'0 0.0
2017-Nov-10 12:30N 40°38' W 074°07'0 0.0
2017-Nov-10 12:00N 40°38' W 074°07'0 0.0
2017-Nov-10 11:30N 40°38' W 074°07'0 0.0
2017-Nov-10 10:54N 40°38' W 074°07'0 0.0
2017-Nov-10 09:38N 40°38' W 074°07'1 6.4
2017-Nov-10 09:30N 40°39' W 074°06'3 5.9
2017-Nov-10 08:59N 40°40' W 074°03'1 3.1
2017-Nov-10 08:30N 40°40' W 074°05'0 0.6
2017-Nov-10 08:00N 40°40' W 074°05'0 0.0
2017-Nov-10 07:30N 40°40' W 074°05'0 0.0
2017-Nov-10 07:00N 40°40' W 074°05'0 0.0
2017-Nov-10 06:30N 40°40' W 074°05'0 0.0
2017-Nov-10 06:00N 40°40' W 074°05'0 0.0
2017-Nov-10 05:30N 40°40' W 074°05'1 2.7
2017-Nov-10 04:58N 40°39' W 074°06'2 3.6
2017-Nov-10 04:31N 40°39' W 074°04'2 4.1
2017-Nov-10 04:00N 40°40' W 074°01'1 1.6
2017-Nov-10 03:28N 40°40' W 074°00'0 0.0
2017-Nov-10 02:58N 40°40' W 074°00'0 0.0
2017-Nov-10 02:28N 40°40' W 074°00'0 0.0
2017-Nov-10 01:58N 40°40' W 074°00'0 0.0
2017-Nov-10 01:28N 40°40' W 074°00'0 0.0
2017-Nov-10 00:58N 40°40' W 074°00'0 0.0
2017-Nov-10 00:28N 40°40' W 074°00'0 0.0
2017-Nov-09 23:58N 40°40' W 074°00'0 0.0
2017-Nov-09 23:28N 40°40' W 074°00'0 0.0
2017-Nov-09 22:58N 40°40' W 074°00'0 0.0
2017-Nov-09 22:28N 40°40' W 074°00'2 4.6
2017-Nov-09 22:00N 40°39' W 074°02'1 1.6
2017-Nov-09 21:30N 40°38' W 074°03'3 5.7
2017-Nov-09 21:00N 40°41' W 074°01'1 1.8
2017-Nov-09 20:28N 40°41' W 074°00'0 0.1
2017-Nov-09 20:00N 40°41' W 074°00'0 0.0
2017-Nov-09 19:30N 40°41' W 074°00'0 0.0
2017-Nov-09 19:00N 40°41' W 074°00'2 4.1
2017-Nov-09 18:29N 40°41' W 074°03'0 0.0
2017-Nov-09 18:00N 40°41' W 074°03'2 2.9
2017-Nov-09 17:28N 40°39' W 074°03'0 0.7
2017-Nov-09 17:01N 40°39' W 074°03'2 3.5
2017-Nov-09 16:27N 40°40' W 074°05'0 0.6
2017-Nov-09 15:54N 40°40' W 074°05'0 0.4
2017-Nov-09 15:30N 40°40' W 074°05'1 1.9
2017-Nov-09 15:00N 40°39' W 074°05'0 0.5
2017-Nov-09 14:29N 40°39' W 074°05'1 2.1
2017-Nov-09 14:01N 40°40' W 074°04'1 1.4
2017-Nov-09 13:28N 40°40' W 074°05'0 0.0
2017-Nov-09 12:58N 40°40' W 074°05'1 3.1
2017-Nov-09 12:30N 40°40' W 074°03'1 1.2
2017-Nov-09 12:00N 40°40' W 074°03'2 4.2
2017-Nov-09 11:30N 40°39' W 074°05'3 6.0
2017-Nov-09 11:00N 40°39' W 074°09'3 5.5
2017-Nov-09 10:30N 40°41' W 074°08'0 0.1
2017-Nov-09 09:52N 40°41' W 074°08'2 4.4
2017-Nov-09 09:30N 40°40' W 074°08'2 2.9
2017-Nov-09 08:58N 40°38' W 074°07'0 0.0
2017-Nov-09 08:28N 40°38' W 074°07'0 0.0
2017-Nov-09 07:58N 40°38' W 074°07'0 0.0
2017-Nov-09 07:25N 40°38' W 074°07'0 0.0
2017-Nov-09 06:58N 40°38' W 074°07'0 0.0
2017-Nov-09 06:28N 40°38' W 074°07'0 0.0
2017-Nov-09 05:58N 40°38' W 074°07'1 1.5
2017-Nov-09 05:30N 40°39' W 074°06'1 2.2
2017-Nov-09 04:59N 40°39' W 074°05'3 5.6
2017-Nov-09 04:30N 40°39' W 074°08'2 3.6
2017-Nov-09 03:55N 40°39' W 074°11'0 0.1
2017-Nov-09 03:27N 40°39' W 074°11'0 0.3
2017-Nov-09 03:00N 40°39' W 074°11'3 3.9
2017-Nov-09 02:14N 40°38' W 074°07'0 0.0
2017-Nov-09 01:56N 40°38' W 074°07'0 0.0
2017-Nov-09 01:26N 40°38' W 074°07'0 0.0
2017-Nov-09 00:59N 40°38' W 074°07'0 0.0
2017-Nov-09 00:29N 40°38' W 074°07'0 0.0
2017-Nov-08 23:56N 40°38' W 074°07'0 0.0
2017-Nov-08 23:25N 40°38' W 074°07'1 1.4
2017-Nov-08 22:59N 40°39' W 074°07'1 1.3
2017-Nov-08 22:30N 40°38' W 074°07'0 0.0
2017-Nov-08 21:48N 40°38' W 074°07'0 0.0
2017-Nov-08 21:30N 40°38' W 074°07'0 0.0
2017-Nov-08 20:42N 40°38' W 074°07'0 0.0
2017-Nov-08 20:21N 40°38' W 074°07'0 0.0
2017-Nov-08 19:57N 40°38' W 074°07'0 0.0
2017-Nov-08 19:30N 40°38' W 074°07'3 5.5
2017-Nov-08 19:00N 40°39' W 074°11'4 7.7
2017-Nov-08 18:30N 40°35' W 074°12'2 3.7
2017-Nov-08 17:56N 40°33' W 074°14'0 0.1
2017-Nov-08 17:26N 40°33' W 074°14'3 6.5
2017-Nov-08 16:58N 40°36' W 074°12'3 6.4
2017-Nov-08 16:30N 40°39' W 074°11'3 5.9
2017-Nov-08 16:00N 40°39' W 074°07'  
Track history (hours):
 
Tides and Currents Weather Stations Pressure Air Temp Water Temp Dewpoint Dewpoint Depression Visibility Wind Speed Wind Dir Waves Ship Positions

Emerald Coast

Owner: Dann Marine Towing, LC, Chesapeake City, MD. More information available from US FCC via Universal Licensing System and Coast Guard Vessel Documentation Center.

Last reported at 2017-Nov-18 13:23 UTC. Time now 2017-Nov-19 10:12 UTC.
Position N 40°58' W 073°54'.

Length 24 m; draft 3 m.

Type: Tug. MMSI: 367097920.

Date/timePositionNaut miles runAvg speedWind from/ knotsBaromVisibWave heightAir tempDewpointWater temp
2017-Nov-18 13:23N 40°58' W 073°54'3 7.9
2017-Nov-18 13:00N 40°55' W 073°55'4 8.1
2017-Nov-18 12:30N 40°52' W 073°57'4 7.6
2017-Nov-18 12:00N 40°48' W 073°59'4 7.3
2017-Nov-18 11:30N 40°45' W 074°01'3 6.7
2017-Nov-18 11:00N 40°42' W 074°02'3 6.2
2017-Nov-18 10:30N 40°39' W 074°04'2 4.7
2017-Nov-18 10:00N 40°39' W 074°07'2 4.7
2017-Nov-18 09:29N 40°39' W 074°10'3 5.2
2017-Nov-18 09:00N 40°37' W 074°12'2 3.2
2017-Nov-18 08:30N 40°35' W 074°13'0 0.0
2017-Nov-18 04:13N 40°35' W 074°12'2 7.4
2017-Nov-18 03:58N 40°33' W 074°13'2 1.9
2017-Nov-18 03:07N 40°33' W 074°15'1 4.2
2017-Nov-18 02:59N 40°33' W 074°15'3 5.3
2017-Nov-18 02:30N 40°35' W 074°12'2 4.0
2017-Nov-18 02:00N 40°37' W 074°12'3 6.2
2017-Nov-18 01:30N 40°39' W 074°09'2 4.1
2017-Nov-18 00:58N 40°39' W 074°06'0 0.1
2017-Nov-18 00:29N 40°39' W 074°06'1 1.7
2017-Nov-18 00:00N 40°39' W 074°07'0 0.7
2017-Nov-17 23:30N 40°38' W 074°07'0 0.0
2017-Nov-17 23:00N 40°38' W 074°07'0 0.0
2017-Nov-17 22:24N 40°38' W 074°07'0 0.0
2017-Nov-17 22:00N 40°38' W 074°07'0 0.0
2017-Nov-17 21:21N 40°38' W 074°07'0 0.0
2017-Nov-17 21:00N 40°38' W 074°07'0 0.0
2017-Nov-17 20:24N 40°38' W 074°07'0 0.0
2017-Nov-17 19:54N 40°38' W 074°07'0 0.0
2017-Nov-17 19:30N 40°38' W 074°07'0 0.0
2017-Nov-17 19:00N 40°38' W 074°07'0 0.0
2017-Nov-17 18:30N 40°38' W 074°07'0 0.0
2017-Nov-17 18:00N 40°38' W 074°07'0 0.0
2017-Nov-17 17:30N 40°38' W 074°07'0 0.0
2017-Nov-17 17:00N 40°38' W 074°07'0 0.0
2017-Nov-17 16:30N 40°38' W 074°07'0 0.0
2017-Nov-17 16:00N 40°38' W 074°07'0 0.0
2017-Nov-17 15:27N 40°38' W 074°07'0 0.0
2017-Nov-17 15:00N 40°38' W 074°07'0 0.0
2017-Nov-17 14:27N 40°38' W 074°07'0 0.0
2017-Nov-17 13:57N 40°38' W 074°07'0 1.1
2017-Nov-17 13:30N 40°39' W 074°07'1 1.3
2017-Nov-17 12:59N 40°39' W 074°06'0 0.6
2017-Nov-17 12:30N 40°39' W 074°05'3 5.2
2017-Nov-17 12:00N 40°40' W 074°09'0 0.4
2017-Nov-17 11:30N 40°40' W 074°09'0 0.7
2017-Nov-17 11:00N 40°39' W 074°09'2 3.2
2017-Nov-17 10:30N 40°39' W 074°07'0 0.6
2017-Nov-17 09:50N 40°39' W 074°07'0 0.0
2017-Nov-17 09:26N 40°39' W 074°07'0 0.0
2017-Nov-17 08:50N 40°39' W 074°07'0 0.0
2017-Nov-17 08:29N 40°39' W 074°07'0 0.0
2017-Nov-17 07:59N 40°39' W 074°07'0 0.0
2017-Nov-17 07:29N 40°39' W 074°07'0 0.1
2017-Nov-17 06:59N 40°39' W 074°07'0 0.0
2017-Nov-17 06:23N 40°39' W 074°07'0 0.0
2017-Nov-17 05:59N 40°39' W 074°07'0 0.0
2017-Nov-17 05:26N 40°39' W 074°07'0 0.0
2017-Nov-17 04:56N 40°39' W 074°07'0 0.0
2017-Nov-17 04:26N 40°39' W 074°07'0 0.0
2017-Nov-17 03:59N 40°39' W 074°07'0 0.0
2017-Nov-17 03:29N 40°39' W 074°07'0 0.1
2017-Nov-17 02:59N 40°39' W 074°07'0 0.0
2017-Nov-17 02:20N 40°39' W 074°07'0 0.0
2017-Nov-17 01:44N 40°39' W 074°07'0 0.0
2017-Nov-17 01:26N 40°39' W 074°07'0 0.0
2017-Nov-17 00:47N 40°39' W 074°07'0 0.0
2017-Nov-17 00:26N 40°39' W 074°07'0 0.0
2017-Nov-16 22:53N 40°39' W 074°07'0 0.1
2017-Nov-16 22:29N 40°39' W 074°07'0 0.4
2017-Nov-16 22:00N 40°39' W 074°07'0 0.0
2017-Nov-16 21:30N 40°39' W 074°07'0 0.0
2017-Nov-16 21:00N 40°39' W 074°07'0 0.0
2017-Nov-16 20:30N 40°39' W 074°07'0 0.0
2017-Nov-16 19:54N 40°39' W 074°07'0 0.3
2017-Nov-16 19:29N 40°39' W 074°07'2 5.0
2017-Nov-16 19:00N 40°41' W 074°09'0 0.7
2017-Nov-16 18:30N 40°41' W 074°08'2 4.0
2017-Nov-16 18:01N 40°39' W 074°09'1 2.2
2017-Nov-16 17:28N 40°39' W 074°07'0 0.7
2017-Nov-16 16:57N 40°39' W 074°07'0 0.0
2017-Nov-16 16:27N 40°39' W 074°07'0 0.0
2017-Nov-16 15:57N 40°38' W 074°07'2 4.1
2017-Nov-16 15:30N 40°39' W 074°10'2 3.4
2017-Nov-16 14:49N 40°38' W 074°12'0 1.2
2017-Nov-16 14:30N 40°38' W 074°12'0 0.0
2017-Nov-16 13:35N 40°38' W 074°12'1 6.2
2017-Nov-16 13:30N 40°38' W 074°12'0 0.9
2017-Nov-16 12:59N 40°39' W 074°11'2 3.7
2017-Nov-16 12:30N 40°39' W 074°09'2 1.9
2017-Nov-16 11:22N 40°39' W 074°06'1 2.2
2017-Nov-16 10:58N 40°39' W 074°05'2 2.7
2017-Nov-16 10:24N 40°39' W 074°07'0 0.0
2017-Nov-16 10:00N 40°39' W 074°07'0 0.0
2017-Nov-16 09:30N 40°39' W 074°07'0 0.0
2017-Nov-16 08:57N 40°39' W 074°07'0 0.0
2017-Nov-16 08:21N 40°39' W 074°07'0 0.0
2017-Nov-16 08:00N 40°39' W 074°07'0 0.0
2017-Nov-16 07:30N 40°39' W 074°07'0 0.0
2017-Nov-16 07:00N 40°39' W 074°07'0 0.0
2017-Nov-16 06:30N 40°39' W 074°07'0 0.0
2017-Nov-16 06:00N 40°39' W 074°07'0 0.3
2017-Nov-16 05:31N 40°39' W 074°07'3 5.8
2017-Nov-16 05:00N 40°41' W 074°04'1 2.3
2017-Nov-16 04:30N 40°41' W 074°03'4 7.2
2017-Nov-16 04:00N 40°44' W 074°01'4 7.1
2017-Nov-16 03:30N 40°47' W 073°59'3 6.5
2017-Nov-16 03:00N 40°50' W 073°57'3 5.6
2017-Nov-16 02:29N 40°53' W 073°56'3 5.0
2017-Nov-16 01:59N 40°55' W 073°55'2 0.8
2017-Nov-15 22:59N 40°58' W 073°54'3 6.6
2017-Nov-15 22:30N 40°55' W 073°55'3 6.4
2017-Nov-15 22:00N 40°52' W 073°57'3 6.3
2017-Nov-15 21:29N 40°49' W 073°58'3 5.9
2017-Nov-15 21:01N 40°46' W 074°00'3 5.3
2017-Nov-15 20:30N 40°44' W 074°01'2 4.9
2017-Nov-15 20:01N 40°41' W 074°02'2 4.8
2017-Nov-15 19:31N 40°39' W 074°04'2 4.5
2017-Nov-15 19:00N 40°39' W 074°07'2 4.5
2017-Nov-15 18:30N 40°39' W 074°10'2 4.6
2017-Nov-15 18:00N 40°38' W 074°12'2 4.9
2017-Nov-15 17:30N 40°35' W 074°12'2 4.2
2017-Nov-15 17:00N 40°33' W 074°14'0 0.1
2017-Nov-15 13:27N 40°33' W 074°15'4 7.6
2017-Nov-15 12:59N 40°36' W 074°12'3 6.3
2017-Nov-15 12:30N 40°39' W 074°10'4 7.5
2017-Nov-15 12:00N 40°39' W 074°05'2 3.4
2017-Nov-15 11:30N 40°39' W 074°03'2 4.6
2017-Nov-15 11:00N 40°41' W 074°01'0 0.8
2017-Nov-15 10:30N 40°41' W 074°01'0 0.0
2017-Nov-15 10:00N 40°41' W 074°01'0 0.0
2017-Nov-15 09:30N 40°41' W 074°01'1 2.1
2017-Nov-15 09:00N 40°41' W 074°02'4 8.1
2017-Nov-15 08:30N 40°39' W 074°07'4 7.6
2017-Nov-15 08:00N 40°38' W 074°12'1 1.1
2017-Nov-15 07:28N 40°38' W 074°12'0 0.2
2017-Nov-15 06:59N 40°38' W 074°12'0 0.1
2017-Nov-15 06:28N 40°38' W 074°12'0 0.3
2017-Nov-15 05:58N 40°38' W 074°12'0 0.6
2017-Nov-15 05:30N 40°38' W 074°12'4 8.5
2017-Nov-15 05:00N 40°39' W 074°07'5 9.2
2017-Nov-15 04:30N 40°41' W 074°01'0 0.4
2017-Nov-15 04:00N 40°41' W 074°01'2 4.6
2017-Nov-15 03:30N 40°40' W 074°04'2 4.5
2017-Nov-15 02:59N 40°39' W 074°07'0 0.0
2017-Nov-15 02:30N 40°39' W 074°07'1 1.2
2017-Nov-15 01:56N 40°38' W 074°07'0 0.0
2017-Nov-15 01:26N 40°38' W 074°07'0 0.0
2017-Nov-15 00:59N 40°38' W 074°07'0 0.0
2017-Nov-15 00:26N 40°38' W 074°07'0 0.0
2017-Nov-14 23:59N 40°38' W 074°07'0 0.0
2017-Nov-14 23:11N 40°38' W 074°07'0 0.0
2017-Nov-14 22:59N 40°38' W 074°07'0 0.0
2017-Nov-14 22:23N 40°38' W 074°07'0 0.0
2017-Nov-14 21:59N 40°38' W 074°07'0 0.0
2017-Nov-14 21:29N 40°38' W 074°07'0 0.0
2017-Nov-14 20:56N 40°38' W 074°07'0 0.0
2017-Nov-14 20:26N 40°38' W 074°07'0 0.0
2017-Nov-14 19:56N 40°38' W 074°07'0 0.0
2017-Nov-14 19:23N 40°38' W 074°07'1 1.8
2017-Nov-14 19:00N 40°39' W 074°08'1 2.8
2017-Nov-14 18:29N 40°39' W 074°10'2 3.4
2017-Nov-14 18:00N 40°40' W 074°08'0 0.3
2017-Nov-14 17:30N 40°40' W 074°08'0 0.5
2017-Nov-14 17:00N 40°40' W 074°09'0 0.0
2017-Nov-14 16:30N 40°40' W 074°09'0 0.0
2017-Nov-14 16:00N 40°40' W 074°09'0 0.0
2017-Nov-14 15:27N 40°40' W 074°09'0 0.0
2017-Nov-14 15:00N 40°40' W 074°09'0 0.0
2017-Nov-14 14:30N 40°40' W 074°09'0 0.0
2017-Nov-14 14:00N 40°40' W 074°09'0 0.7
2017-Nov-14 13:30N 40°40' W 074°09'0 0.2
2017-Nov-14 13:00N 40°39' W 074°09'0 0.5
2017-Nov-14 12:30N 40°39' W 074°09'2 3.1
2017-Nov-14 12:00N 40°39' W 074°07'1 1.2
2017-Nov-14 11:29N 40°39' W 074°06'3 6.4
2017-Nov-14 11:00N 40°39' W 074°02'1 2.6
2017-Nov-14 10:30N 40°40' W 074°01'3 5.3
2017-Nov-14 10:00N 40°39' W 074°04'2 3.9
2017-Nov-14 09:25N 40°39' W 074°07'0 0.9
2017-Nov-14 08:54N 40°38' W 074°07'0 0.0
2017-Nov-14 08:27N 40°38' W 074°07'0 0.0
2017-Nov-14 08:00N 40°38' W 074°07'0 0.0
2017-Nov-14 07:27N 40°38' W 074°07'0 0.0
2017-Nov-14 07:00N 40°38' W 074°07'0 0.0
2017-Nov-14 06:30N 40°38' W 074°07'0 0.0
2017-Nov-14 06:00N 40°38' W 074°07'0 0.0
2017-Nov-14 05:30N 40°38' W 074°07'1 1.3
2017-Nov-14 04:58N 40°39' W 074°06'2 4.6
2017-Nov-14 04:30N 40°40' W 074°04'1 1.2
2017-Nov-14 04:00N 40°40' W 074°05'0 0.0
2017-Nov-14 03:30N 40°40' W 074°05'0 0.6
2017-Nov-14 02:59N 40°40' W 074°05'0 0.0
2017-Nov-14 02:29N 40°40' W 074°05'0 0.0
2017-Nov-14 01:59N 40°40' W 074°05'0 0.0
2017-Nov-14 01:29N 40°40' W 074°05'0 0.0
2017-Nov-14 01:00N 40°40' W 074°05'3 5.9
2017-Nov-14 00:30N 40°40' W 074°01'1 1.6
2017-Nov-13 23:59N 40°40' W 074°00'0 0.0
2017-Nov-13 23:29N 40°40' W 074°00'0 0.0
2017-Nov-13 22:59N 40°40' W 074°00'0 0.2
2017-Nov-13 22:30N 40°40' W 074°00'0 0.0
2017-Nov-13 22:00N 40°40' W 074°00'6 0.3
2017-Nov-13 01:59N 40°39' W 074°07'0 0.0
2017-Nov-13 01:29N 40°39' W 074°07'0 0.0
2017-Nov-13 00:50N 40°39' W 074°07'0 0.0
2017-Nov-13 00:26N 40°39' W 074°07'0 0.0
2017-Nov-12 23:59N 40°39' W 074°07'0 0.0
2017-Nov-12 23:29N 40°39' W 074°07'0 0.0
2017-Nov-12 22:59N 40°39' W 074°07'0 0.0
2017-Nov-12 22:29N 40°39' W 074°07'0 0.0
2017-Nov-12 21:59N 40°39' W 074°07'0 0.0
2017-Nov-12 21:23N 40°39' W 074°07'0 0.0
2017-Nov-12 20:56N 40°39' W 074°07'0 0.0
2017-Nov-12 20:29N 40°39' W 074°07'0 0.1
2017-Nov-12 20:00N 40°39' W 074°07'0 0.7
2017-Nov-12 19:30N 40°39' W 074°07'2 3.2
2017-Nov-12 19:00N 40°38' W 074°09'0 0.0
2017-Nov-12 18:30N 40°38' W 074°09'2 2.7
2017-Nov-12 17:52N 40°38' W 074°07'0 0.0
2017-Nov-12 17:10N 40°38' W 074°07'0 0.0
2017-Nov-12 16:58N 40°38' W 074°07'0 0.0
2017-Nov-12 16:22N 40°38' W 074°07'2 6.4
2017-Nov-12 16:00N 40°39' W 074°04'4 7.2
2017-Nov-12 15:28N 40°41' W 074°00'0 0.2
2017-Nov-12 14:58N 40°41' W 074°00'0 0.4
2017-Nov-12 14:30N 40°41' W 074°01'2 4.0
2017-Nov-12 14:01N 40°43' W 074°01'4 7.0
2017-Nov-12 13:30N 40°47' W 074°00'4 7.1
2017-Nov-12 13:01N 40°50' W 073°58'3 6.7
2017-Nov-12 12:30N 40°53' W 073°56'3 6.4
2017-Nov-12 12:00N 40°56' W 073°55'2 0.1
2017-Nov-11 07:48N 40°58' W 073°54'2 7.7
2017-Nov-11 07:30N 40°55' W 073°55'4 8.0
2017-Nov-11 07:00N 40°52' W 073°57'4 7.5
2017-Nov-11 06:30N 40°48' W 073°59'4 7.0
2017-Nov-11 06:00N 40°45' W 074°01'3 6.1
2017-Nov-11 05:30N 40°42' W 074°02'3 5.8
2017-Nov-11 05:00N 40°39' W 074°03'2 4.8
2017-Nov-11 04:30N 40°39' W 074°06'2 4.4
2017-Nov-11 04:00N 40°39' W 074°09'2 4.9
2017-Nov-11 03:30N 40°38' W 074°12'0 0.1
2017-Nov-11 02:56N 40°38' W 074°12'2 5.3
2017-Nov-11 02:30N 40°39' W 074°10'3 5.5
2017-Nov-11 01:56N 40°39' W 074°05'0 0.0
2017-Nov-11 01:26N 40°39' W 074°05'0 0.0
2017-Nov-11 00:59N 40°39' W 074°05'2 4.3
2017-Nov-11 00:30N 40°39' W 074°03'2 4.9
2017-Nov-11 00:00N 40°40' W 074°00'0 0.0
2017-Nov-10 23:30N 40°40' W 074°00'0 0.0
2017-Nov-10 23:00N 40°40' W 074°00'0 0.0
2017-Nov-10 22:30N 40°40' W 074°00'0 0.0
2017-Nov-10 22:00N 40°40' W 073°60'3 6.5
2017-Nov-10 21:30N 40°39' W 074°04'3 6.8
2017-Nov-10 21:00N 40°40' W 074°09'0 0.4
2017-Nov-10 20:30N 40°40' W 074°08'2 3.0
2017-Nov-10 20:01N 40°39' W 074°08'2 4.5
2017-Nov-10 19:31N 40°39' W 074°05'0 0.5
2017-Nov-10 18:59N 40°39' W 074°05'0 0.1
2017-Nov-10 18:29N 40°39' W 074°05'1 1.2
2017-Nov-10 18:00N 40°39' W 074°06'4 8.6
2017-Nov-10 17:30N 40°39' W 074°11'4 8.4
2017-Nov-10 17:00N 40°34' W 074°13'2 0.8
2017-Nov-10 15:01N 40°33' W 074°14'0 4.6
2017-Nov-10 15:00N 40°33' W 074°14'3 6.2
2017-Nov-10 14:28N 40°36' W 074°12'3 6.7
2017-Nov-10 13:59N 40°39' W 074°09'2 2.4
2017-Nov-10 13:18N 40°38' W 074°07'0 0.0
2017-Nov-10 13:00N 40°38' W 074°07'0 0.0
2017-Nov-10 12:30N 40°38' W 074°07'0 0.0
2017-Nov-10 12:00N 40°38' W 074°07'0 0.0
2017-Nov-10 11:30N 40°38' W 074°07'0 0.0
2017-Nov-10 10:54N 40°38' W 074°07'0 0.0
2017-Nov-10 09:38N 40°38' W 074°07'1 6.4
2017-Nov-10 09:30N 40°39' W 074°06'3 5.9
2017-Nov-10 08:59N 40°40' W 074°03'1 3.1
2017-Nov-10 08:30N 40°40' W 074°05'0 0.6
2017-Nov-10 08:00N 40°40' W 074°05'0 0.0
2017-Nov-10 07:30N 40°40' W 074°05'0 0.0
2017-Nov-10 07:00N 40°40' W 074°05'0 0.0
2017-Nov-10 06:30N 40°40' W 074°05'0 0.0
2017-Nov-10 06:00N 40°40' W 074°05'0 0.0
2017-Nov-10 05:30N 40°40' W 074°05'1 2.7
2017-Nov-10 04:58N 40°39' W 074°06'2 3.6
2017-Nov-10 04:31N 40°39' W 074°04'2 4.1
2017-Nov-10 04:00N 40°40' W 074°01'1 1.6
2017-Nov-10 03:28N 40°40' W 074°00'0 0.0
2017-Nov-10 02:58N 40°40' W 074°00'0 0.0
2017-Nov-10 02:28N 40°40' W 074°00'0 0.0
2017-Nov-10 01:58N 40°40' W 074°00'0 0.0
2017-Nov-10 01:28N 40°40' W 074°00'0 0.0
2017-Nov-10 00:58N 40°40' W 074°00'0 0.0
2017-Nov-10 00:28N 40°40' W 074°00'0 0.0
2017-Nov-09 23:58N 40°40' W 074°00'0 0.0
2017-Nov-09 23:28N 40°40' W 074°00'0 0.0
2017-Nov-09 22:58N 40°40' W 074°00'0 0.0
2017-Nov-09 22:28N 40°40' W 074°00'2 4.6
2017-Nov-09 22:00N 40°39' W 074°02'1 1.6
2017-Nov-09 21:30N 40°38' W 074°03'3 5.7
2017-Nov-09 21:00N 40°41' W 074°01'1 1.8
2017-Nov-09 20:28N 40°41' W 074°00'0 0.1
2017-Nov-09 20:00N 40°41' W 074°00'0 0.0
2017-Nov-09 19:30N 40°41' W 074°00'0 0.0
2017-Nov-09 19:00N 40°41' W 074°00'2 4.1
2017-Nov-09 18:29N 40°41' W 074°03'0 0.0
2017-Nov-09 18:00N 40°41' W 074°03'2 2.9
2017-Nov-09 17:28N 40°39' W 074°03'0 0.7
2017-Nov-09 17:01N 40°39' W 074°03'2 3.5
2017-Nov-09 16:27N 40°40' W 074°05'0 0.6
2017-Nov-09 15:54N 40°40' W 074°05'0 0.4
2017-Nov-09 15:30N 40°40' W 074°05'1 1.9
2017-Nov-09 15:00N 40°39' W 074°05'0 0.5
2017-Nov-09 14:29N 40°39' W 074°05'1 2.1
2017-Nov-09 14:01N 40°40' W 074°04'1 1.4
2017-Nov-09 13:28N 40°40' W 074°05'0 0.0
2017-Nov-09 12:58N 40°40' W 074°05'1 3.1
2017-Nov-09 12:30N 40°40' W 074°03'1 1.2
2017-Nov-09 12:00N 40°40' W 074°03'2 4.2
2017-Nov-09 11:30N 40°39' W 074°05'3 6.0
2017-Nov-09 11:00N 40°39' W 074°09'3 5.5
2017-Nov-09 10:30N 40°41' W 074°08'0 0.1
2017-Nov-09 09:52N 40°41' W 074°08'2 4.4
2017-Nov-09 09:30N 40°40' W 074°08'2 2.9
2017-Nov-09 08:58N 40°38' W 074°07'0 0.0
2017-Nov-09 08:28N 40°38' W 074°07'0 0.0
2017-Nov-09 07:58N 40°38' W 074°07'0 0.0
2017-Nov-09 07:25N 40°38' W 074°07'0 0.0
2017-Nov-09 06:58N 40°38' W 074°07'0 0.0
2017-Nov-09 06:28N 40°38' W 074°07'0 0.0
2017-Nov-09 05:58N 40°38' W 074°07'1 1.5
2017-Nov-09 05:30N 40°39' W 074°06'1 2.2
2017-Nov-09 04:59N 40°39' W 074°05'3 5.6
2017-Nov-09 04:30N 40°39' W 074°08'2 3.6
2017-Nov-09 03:55N 40°39' W 074°11'0 0.1
2017-Nov-09 03:27N 40°39' W 074°11'0 0.3
2017-Nov-09 03:00N 40°39' W 074°11'3 3.9
2017-Nov-09 02:14N 40°38' W 074°07'0 0.0
2017-Nov-09 01:56N 40°38' W 074°07'0 0.0
2017-Nov-09 01:26N 40°38' W 074°07'0 0.0
2017-Nov-09 00:59N 40°38' W 074°07'0 0.0
2017-Nov-09 00:29N 40°38' W 074°07'0 0.0
2017-Nov-08 23:56N 40°38' W 074°07'0 0.0
2017-Nov-08 23:25N 40°38' W 074°07'1 1.4
2017-Nov-08 22:59N 40°39' W 074°07'1 1.3
2017-Nov-08 22:30N 40°38' W 074°07'0 0.0
2017-Nov-08 21:48N 40°38' W 074°07'0 0.0
2017-Nov-08 21:30N 40°38' W 074°07'0 0.0
2017-Nov-08 20:42N 40°38' W 074°07'0 0.0
2017-Nov-08 20:21N 40°38' W 074°07'0 0.0
2017-Nov-08 19:57N 40°38' W 074°07'0 0.0
2017-Nov-08 19:30N 40°38' W 074°07'3 5.5
2017-Nov-08 19:00N 40°39' W 074°11'4 7.7
2017-Nov-08 18:30N 40°35' W 074°12'2 3.7
2017-Nov-08 17:56N 40°33' W 074°14'0 0.1
2017-Nov-08 17:26N 40°33' W 074°14'3 6.5
2017-Nov-08 16:58N 40°36' W 074°12'3 6.4
2017-Nov-08 16:30N 40°39' W 074°11'3 5.9
2017-Nov-08 16:00N 40°39' W 074°07'  

Dump ship's entire track history